Time;durP1;ratioP1;P1;durP2;ratioP2;P2;SDS_P1;SDS_P2;PMS_P1;PMS_P2;Temp;Humidity;BMP_temperature;BMP_pressure;BME280_temperature;BME280_humidity;BME280_pressure;Samples;Min_cycle;Max_cycle;Signal;HPM_P1;HPM_P2
2022/04/01 00:00:28;;;;;;;1.52;1.40;;;4.90;49.30;;;;;;2373655;56;21111;-73
2022/04/01 00:02:55;;;;;;;1.37;1.27;;;4.90;49.20;;;;;;2373547;56;21152;-73
2022/04/01 00:05:22;;;;;;;5.93;1.77;;;4.90;49.30;;;;;;2371841;56;21058;-72
2022/04/01 00:07:50;;;;;;;3.03;1.40;;;4.90;49.60;;;;;;2626341;52;21600;-73
2022/04/01 00:10:18;;;;;;;1.50;1.40;;;4.90;49.70;;;;;;2373513;56;21035;-72
2022/04/01 00:12:46;;;;;;;2.72;1.37;;;4.80;49.50;;;;;;2373325;56;21110;-72
2022/04/01 00:15:14;;;;;;;4.32;1.40;;;4.80;49.50;;;;;;2372657;56;21102;-73
2022/04/01 00:17:42;;;;;;;3.45;1.35;;;4.80;49.60;;;;;;2373168;56;21039;-73
2022/04/01 00:20:13;;;;;;;1.52;1.40;;;4.80;49.90;;;;;;2373353;56;21138;-72
2022/04/01 00:22:40;;;;;;;1.95;1.52;;;4.80;49.90;;;;;;2626871;52;21015;-72
2022/04/01 00:25:08;;;;;;;2.58;1.37;;;4.80;50.00;;;;;;2372976;56;21605;-75
2022/04/01 00:27:36;;;;;;;2.62;1.70;;;4.80;50.30;;;;;;2372964;56;21110;-72
2022/04/01 00:30:04;;;;;;;1.62;1.40;;;4.90;50.40;;;;;;2374148;56;21707;-74
2022/04/01 00:32:32;;;;;;;3.17;1.20;;;4.90;50.20;;;;;;2373007;56;21051;-74
2022/04/01 00:35:00;;;;;;;2.28;1.35;;;4.80;50.10;;;;;;2373155;56;21113;-74
2022/04/01 00:37:27;;;;;;;2.53;1.33;;;4.90;50.30;;;;;;2373272;56;21039;-74
2022/04/01 00:39:54;;;;;;;3.12;1.40;;;4.90;50.50;;;;;;2373157;56;21058;-74
2022/04/01 00:42:23;;;;;;;4.18;1.45;;;4.90;50.60;;;;;;2372156;56;21062;-74
2022/04/01 00:44:50;;;;;;;3.75;1.98;;;4.90;50.60;;;;;;2626426;52;21352;-74
2022/04/01 00:47:17;;;;;;;4.30;1.60;;;4.80;50.60;;;;;;2373166;56;21629;-74
2022/04/01 00:49:46;;;;;;;6.18;1.50;;;4.90;50.70;;;;;;2373603;56;21115;-74
2022/04/01 00:52:16;;;;;;;1.77;1.40;;;4.90;50.70;;;;;;2626401;52;21027;-74
2022/04/01 00:54:44;;;;;;;3.85;1.50;;;4.90;50.70;;;;;;2373343;56;21047;-74
2022/04/01 00:57:14;;;;;;;3.60;1.30;;;4.80;50.60;;;;;;2626748;52;21380;-74
2022/04/01 00:59:42;;;;;;;5.10;1.30;;;4.90;50.90;;;;;;2373234;56;21143;-74
2022/04/01 01:02:09;;;;;;;1.60;1.50;;;4.90;51.00;;;;;;2373521;56;21038;-74
2022/04/01 01:04:37;;;;;;;3.37;1.60;;;4.80;51.00;;;;;;2373311;56;21031;-74
2022/04/01 01:07:05;;;;;;;6.35;1.80;;;4.80;51.10;;;;;;2372777;56;21082;-74
2022/04/01 01:09:33;;;;;;;1.95;1.20;;;4.90;51.10;;;;;;2627061;52;21055;-74
2022/04/01 01:12:01;;;;;;;1.42;1.33;;;4.90;51.10;;;;;;2373812;56;21031;-74
2022/04/01 01:14:34;;;;;;;5.87;1.45;;;4.90;51.30;;;;;;2372866;56;21105;-74
2022/04/01 01:17:03;;;;;;;3.10;1.65;;;4.90;51.40;;;;;;2373627;56;21110;-75
2022/04/01 01:19:31;;;;;;;3.47;1.90;;;4.80;51.30;;;;;;2373439;56;21114;-73
2022/04/01 01:21:59;;;;;;;3.08;1.40;;;4.80;51.40;;;;;;2373130;56;21055;-74
2022/04/01 01:24:31;;;;;;;2.08;1.45;;;4.80;51.70;;;;;;2372235;56;21168;-75
2022/04/01 01:26:59;;;;;;;2.65;1.45;;;4.80;51.70;;;;;;2373009;56;21521;-74
2022/04/01 01:29:28;;;;;;;2.30;1.52;;;4.80;51.80;;;;;;2373522;56;21028;-75
2022/04/01 01:31:57;;;;;;;3.42;1.52;;;4.80;51.90;;;;;;2373984;56;21051;-74
2022/04/01 01:34:25;;;;;;;2.33;1.42;;;4.80;51.90;;;;;;2372683;56;21051;-74
2022/04/01 01:36:53;;;;;;;2.00;1.20;;;4.80;52.10;;;;;;2372887;56;21039;-74
2022/04/01 01:39:21;;;;;;;4.28;2.00;;;4.80;52.20;;;;;;2373179;56;21047;-75
2022/04/01 01:41:50;;;;;;;6.32;1.77;;;4.80;52.30;;;;;;2373083;56;21099;-74
2022/04/01 01:44:20;;;;;;;5.00;1.42;;;4.80;52.30;;;;;;2373385;56;22118;-75
2022/04/01 01:46:49;;;;;;;3.80;1.48;;;4.80;52.40;;;;;;2373736;56;21122;-75
2022/04/01 01:49:16;;;;;;;2.05;1.40;;;4.80;52.60;;;;;;2492152;54;21054;-73
2022/04/01 01:54:43;;;;;;;3.60;1.40;;;4.80;52.60;;;;;;2299880;58;21077;-74
2022/04/01 01:57:11;;;;;;;1.90;1.30;;;4.80;52.70;;;;;;2274046;59;21064;-75
2022/04/01 01:59:38;;;;;;;4.72;1.52;;;4.80;52.60;;;;;;2274776;59;21068;-75
2022/04/01 02:02:07;;;;;;;1.20;1.10;;;4.80;52.80;;;;;;2275458;59;21068;-75
2022/04/01 02:04:35;;;;;;;4.70;1.40;;;4.90;53.00;;;;;;2275088;59;21060;-76
2022/04/01 02:07:02;;;;;;;4.80;1.50;;;4.80;52.60;;;;;;2274904;59;21061;-76
2022/04/01 02:09:30;;;;;;;4.55;1.40;;;4.80;52.60;;;;;;2275653;59;21072;-76
2022/04/01 02:11:58;;;;;;;2.05;1.50;;;4.70;52.70;;;;;;2274636;59;21111;-76
2022/04/01 02:14:27;;;;;;;4.95;1.40;;;4.70;52.90;;;;;;2273507;59;21147;-75
2022/04/01 02:16:54;;;;;;;3.08;1.23;;;4.70;52.90;;;;;;2274549;59;21077;-75
2022/04/01 02:19:21;;;;;;;1.67;1.20;;;4.70;53.00;;;;;;2275477;59;21068;-75
2022/04/01 02:21:50;;;;;;;5.55;1.58;;;4.60;53.50;;;;;;2275991;59;21064;-75
2022/04/01 02:24:17;;;;;;;3.10;1.50;;;4.60;53.20;;;;;;2275206;59;21578;-75
2022/04/01 02:26:47;;;;;;;7.78;1.37;;;4.60;53.30;;;;;;2274328;59;21073;-75
2022/04/01 02:29:15;;;;;;;2.78;1.30;;;4.70;53.20;;;;;;2274042;59;21087;-75
2022/04/01 02:31:43;;;;;;;1.95;1.25;;;4.70;53.50;;;;;;2274819;59;21067;-76
2022/04/01 02:34:10;;;;;;;2.25;1.30;;;4.70;53.50;;;;;;2274749;59;21088;-75
2022/04/01 02:36:38;;;;;;;3.22;1.40;;;4.70;53.90;;;;;;2275025;59;21133;-76
2022/04/01 02:39:06;;;;;;;3.03;1.33;;;4.60;53.50;;;;;;2275106;59;21116;-75
2022/04/01 02:41:33;;;;;;;3.65;1.40;;;4.60;53.60;;;;;;2275228;59;21053;-75
2022/04/01 02:44:08;;;;;;;2.50;1.95;;;4.70;53.50;;;;;;2505927;55;21602;-75
2022/04/01 02:46:37;;;;;;;5.40;1.52;;;4.70;53.40;;;;;;2274724;59;21462;-75
2022/04/01 02:49:06;;;;;;;2.90;1.30;;;4.70;54.20;;;;;;2274699;59;21618;-75
2022/04/01 02:51:36;;;;;;;8.10;1.90;;;4.70;53.90;;;;;;2275120;59;21630;-75
2022/04/01 02:54:04;;;;;;;4.28;1.80;;;4.70;53.20;;;;;;2274779;59;21590;-75
2022/04/01 02:56:32;;;;;;;2.47;1.60;;;4.60;53.00;;;;;;2274402;59;21096;-75
2022/04/01 02:59:00;;;;;;;4.65;1.33;;;4.60;53.20;;;;;;2275169;59;21088;-75
2022/04/01 03:01:28;;;;;;;2.50;1.50;;;4.60;53.10;;;;;;2274238;59;21135;-75
2022/04/01 03:03:55;;;;;;;4.20;1.40;;;4.60;52.80;;;;;;2274308;59;21143;-75
2022/04/01 03:08:59;;;;;;;6.72;2.10;;;4.60;52.80;;;;;;2354441;57;22065;-74
2022/04/01 03:11:26;;;;;;;6.28;2.33;;;4.50;52.50;;;;;;2345289;57;21686;-76
2022/04/01 03:13:54;;;;;;;3.53;1.95;;;4.60;52.70;;;;;;2345556;57;21112;-76
2022/04/01 03:16:22;;;;;;;3.40;1.83;;;4.50;52.70;;;;;;2365727;56;21039;-76
2022/04/01 03:18:49;;;;;;;2.60;1.70;;;4.50;52.70;;;;;;2372656;56;21058;-76
2022/04/01 03:21:16;;;;;;;3.12;2.00;;;4.50;52.50;;;;;;2373427;56;21050;-75
2022/04/01 03:23:44;;;;;;;9.15;2.15;;;4.60;52.80;;;;;;2373132;56;21059;-75
2022/04/01 03:26:11;;;;;;;3.28;1.80;;;4.50;52.60;;;;;;2373053;56;21059;-75
2022/04/01 03:28:40;;;;;;;3.35;2.03;;;4.50;52.80;;;;;;2372856;56;21047;-75
2022/04/01 03:31:09;;;;;;;4.50;2.55;;;4.60;52.80;;;;;;2625338;52;21361;-75
2022/04/01 03:33:38;;;;;;;5.28;1.75;;;4.60;52.80;;;;;;2626020;52;21047;-75
2022/04/01 03:36:05;;;;;;;4.15;1.80;;;4.60;53.00;;;;;;2372662;56;21098;-74
2022/04/01 03:38:33;;;;;;;8.82;2.35;;;4.60;53.10;;;;;;2627164;52;21740;-76
2022/04/01 03:41:02;;;;;;;6.97;2.20;;;4.70;53.00;;;;;;2373424;56;21141;-75
2022/04/01 03:43:30;;;;;;;10.15;2.47;;;4.60;53.10;;;;;;2373861;56;21058;-75
2022/04/01 03:45:59;;;;;;;6.15;2.08;;;4.60;53.20;;;;;;2371973;56;21447;-75
2022/04/01 03:48:29;;;;;;;4.40;2.35;;;4.60;53.40;;;;;;2373612;56;21054;-75
2022/04/01 03:50:58;;;;;;;7.53;2.15;;;4.60;53.50;;;;;;2373223;56;21106;-75
2022/04/01 03:53:27;;;;;;;3.28;2.20;;;4.60;53.60;;;;;;2373744;56;21043;-75
2022/04/01 03:55:56;;;;;;;4.75;2.00;;;4.60;54.00;;;;;;2372240;56;21110;-75
2022/04/01 03:58:29;;;;;;;4.32;2.20;;;4.60;54.20;;;;;;2373208;56;21114;-75
2022/04/01 04:01:00;;;;;;;4.97;2.53;;;4.60;54.40;;;;;;2373791;56;21095;-75
2022/04/01 04:03:29;;;;;;;4.57;2.10;;;4.60;54.80;;;;;;2370880;56;21039;-75
2022/04/01 04:05:57;;;;;;;3.85;2.12;;;4.60;54.90;;;;;;2372487;56;21533;-74
2022/04/01 04:08:26;;;;;;;6.32;2.42;;;4.60;55.20;;;;;;2626015;52;21067;-75
2022/04/01 04:10:54;;;;;;;4.93;2.35;;;4.60;55.40;;;;;;2372240;56;21044;-75
2022/04/01 04:13:25;;;;;;;6.65;2.65;;;4.60;55.50;;;;;;2373235;56;21691;-75
2022/04/01 04:16:00;;;;;;;5.03;2.55;;;4.60;55.80;;;;;;2372500;56;21026;-75
2022/04/01 04:18:33;;;;;;;3.60;2.45;;;4.60;56.00;;;;;;2373545;56;21046;-75
2022/04/01 04:21:10;;;;;;;3.40;2.00;;;4.60;56.10;;;;;;2369969;56;21110;-75
2022/04/01 04:23:44;;;;;;;4.03;2.40;;;4.60;56.10;;;;;;2370754;56;21038;-75
2022/04/01 04:26:16;;;;;;;4.60;2.37;;;4.60;56.20;;;;;;2370807;56;21062;-75
2022/04/01 04:28:48;;;;;;;3.47;2.12;;;4.60;56.30;;;;;;2371891;56;21051;-75
2022/04/01 04:31:20;;;;;;;8.20;2.60;;;4.60;56.30;;;;;;2624657;52;21903;-74
2022/04/01 04:33:49;;;;;;;5.05;2.80;;;4.60;56.30;;;;;;2371811;56;21078;-75
2022/04/01 04:36:19;;;;;;;5.50;2.70;;;4.60;56.30;;;;;;2370843;56;21039;-75
2022/04/01 04:38:49;;;;;;;3.90;2.30;;;4.60;56.50;;;;;;2370537;56;21118;-75
2022/04/01 04:41:20;;;;;;;6.72;2.55;;;4.60;56.60;;;;;;2371103;56;21114;-75
2022/04/01 04:43:50;;;;;;;7.30;2.83;;;4.70;56.70;;;;;;2370559;56;21035;-75
2022/04/01 04:46:19;;;;;;;7.97;2.65;;;4.60;56.70;;;;;;2370926;56;21118;-75
2022/04/01 04:48:48;;;;;;;4.97;2.50;;;4.60;56.80;;;;;;2371250;56;21059;-75
2022/04/01 04:51:17;;;;;;;4.53;2.72;;;4.60;56.80;;;;;;2371679;56;21151;-75
2022/04/01 04:53:44;;;;;;;6.72;2.65;;;4.60;56.70;;;;;;2372366;56;21043;-75
2022/04/01 04:56:13;;;;;;;4.37;2.95;;;4.60;56.80;;;;;;2371430;56;21054;-75
2022/04/01 04:58:43;;;;;;;5.53;2.80;;;4.60;56.80;;;;;;2372015;56;21054;-75
2022/04/01 05:01:24;;;;;;;6.63;3.70;;;4.60;56.90;;;;;;2625041;52;21112;-75
2022/04/01 05:04:16;;;;;;;8.82;3.12;;;4.60;56.90;;;;;;2371954;56;21046;-76
2022/04/01 05:06:50;;;;;;;3.75;2.40;;;4.60;57.00;;;;;;2370343;56;21055;-74
2022/04/01 05:09:26;;;;;;;5.07;2.70;;;4.70;57.10;;;;;;2371816;56;21038;-74
2022/04/01 05:12:04;;;;;;;3.03;2.65;;;4.70;57.20;;;;;;2371778;56;21170;-74
2022/04/01 05:14:49;;;;;;;7.28;2.75;;;4.70;57.20;;;;;;2370541;56;21118;-75
2022/04/01 05:17:25;;;;;;;6.57;2.97;;;4.70;57.50;;;;;;2372290;56;21054;-75
2022/04/01 05:19:58;;;;;;;7.70;3.05;;;4.70;57.40;;;;;;2370382;56;21039;-74
2022/04/01 05:22:36;;;;;;;5.15;2.67;;;4.70;57.40;;;;;;2624223;52;21098;-73
2022/04/01 05:25:06;;;;;;;4.80;3.10;;;4.70;57.50;;;;;;2370564;56;21565;-73
2022/04/01 05:27:41;;;;;;;9.48;3.42;;;4.70;57.50;;;;;;2370350;56;21126;-73
2022/04/01 05:33:00;;;;;;;7.32;3.15;;;4.70;57.50;;;;;;2353098;57;22101;-72
2022/04/01 05:35:30;;;;;;;6.57;3.00;;;4.70;57.80;;;;;;2354337;56;21055;-72
2022/04/01 05:37:59;;;;;;;5.20;3.20;;;4.70;57.80;;;;;;2370499;56;21050;-72
2022/04/01 05:40:28;;;;;;;4.93;3.37;;;4.70;57.90;;;;;;2372535;56;21047;-75
2022/04/01 05:45:32;;;;;;;7.97;4.18;;;4.70;58.00;;;;;;2342411;57;22624;-74
2022/04/01 05:48:01;;;;;;;7.00;3.15;;;4.80;58.20;;;;;;2344283;57;21147;-73
2022/04/01 05:50:30;;;;;;;5.68;3.17;;;4.80;58.20;;;;;;2344520;57;21394;-76
2022/04/01 05:55:33;;;;;;;8.80;4.12;;;4.80;58.10;;;;;;2322105;57;27923;-74
2022/04/01 05:58:04;;;;;;;8.43;3.40;;;4.70;59.40;;;;;;2345540;57;21612;-75
2022/04/01 06:00:44;;;;;;;4.75;3.53;;;4.80;58.90;;;;;;2345202;57;21037;-76
2022/04/01 06:03:41;;;;;;;4.25;3.25;;;4.90;58.70;;;;;;2345743;57;21112;-76
2022/04/01 06:06:13;;;;;;;10.20;3.20;;;4.90;58.40;;;;;;2345209;57;21041;-74
2022/04/01 06:08:56;;;;;;;13.15;3.80;;;5.00;58.40;;;;;;2345127;57;21121;-73
2022/04/01 06:11:41;;;;;;;;;;;5.00;58.20;;;;;;2348737;57;21049;-75
2022/04/01 06:14:17;;;;;;;5.45;3.08;;;5.10;58.20;;;;;;2345770;57;20122;-76
2022/04/01 06:16:49;;;;;;;9.88;3.17;;;5.00;58.20;;;;;;2345038;57;21591;-76
2022/04/01 06:19:23;;;;;;;7.90;3.05;;;5.00;58.50;;;;;;2345257;57;21042;-76
2022/04/01 06:22:02;;;;;;;6.70;4.10;;;5.00;58.50;;;;;;2345784;57;21153;-76
2022/04/01 06:24:45;;;;;;;8.23;3.28;;;5.00;58.60;;;;;;2592800;53;21093;-76
2022/04/01 06:30:00;;;;;;;8.88;3.85;;;5.00;58.80;;;;;;2354514;57;20304;-73
2022/04/01 06:32:45;;;;;;;5.18;2.97;;;5.10;58.80;;;;;;2345146;57;21124;-75
2022/04/01 06:35:18;;;;;;;6.18;3.20;;;5.10;58.90;;;;;;2602062;52;21023;-76
2022/04/01 06:37:54;;;;;;;3.92;3.03;;;5.20;59.40;;;;;;2373163;56;21047;-76
2022/04/01 06:40:23;;;;;;;8.80;3.62;;;5.20;58.80;;;;;;2627516;52;21100;-76
2022/04/01 06:42:52;;;;;;;5.65;3.15;;;5.20;58.70;;;;;;2627331;52;21232;-76
2022/04/01 06:45:20;;;;;;;8.68;3.28;;;5.20;58.80;;;;;;2372546;56;22227;-76
2022/04/01 06:47:48;;;;;;;6.30;2.90;;;5.30;58.60;;;;;;2626752;52;21181;-76
2022/04/01 06:50:16;;;;;;;4.75;3.08;;;5.30;58.80;;;;;;2373792;56;21043;-76
2022/04/01 06:52:45;;;;;;;5.62;3.42;;;5.30;58.80;;;;;;2373656;56;21055;-75
2022/04/01 06:55:13;;;;;;;7.07;3.20;;;5.30;58.70;;;;;;2372466;56;21042;-76
2022/04/01 06:57:41;;;;;;;6.97;3.50;;;5.40;58.70;;;;;;2373276;56;21134;-76
2022/04/01 07:00:13;;;;;;;10.55;3.92;;;5.40;58.80;;;;;;2373656;56;21361;-75
2022/04/01 07:02:41;;;;;;;10.65;3.92;;;5.50;58.80;;;;;;2373348;56;21052;-75
2022/04/01 07:05:09;;;;;;;6.57;3.28;;;5.50;58.70;;;;;;2373780;56;21047;-76
2022/04/01 07:07:37;;;;;;;7.25;3.20;;;5.50;58.70;;;;;;2373394;56;21054;-75
2022/04/01 07:10:07;;;;;;;5.87;3.33;;;5.50;58.70;;;;;;2373608;56;21047;-76
2022/04/01 07:12:34;;;;;;;8.10;3.33;;;5.60;58.60;;;;;;2372422;56;21047;-76
2022/04/01 07:15:03;;;;;;;7.10;3.35;;;5.60;58.40;;;;;;2372906;56;21545;-75
2022/04/01 07:17:30;;;;;;;4.80;2.83;;;5.60;58.30;;;;;;2372265;56;21151;-75
2022/04/01 07:19:57;;;;;;;7.18;3.08;;;5.60;58.00;;;;;;2371523;56;21105;-76
2022/04/01 07:22:25;;;;;;;7.05;3.30;;;5.60;58.10;;;;;;2373357;56;21127;-76
2022/04/01 07:24:52;;;;;;;7.75;3.37;;;5.60;57.90;;;;;;2373034;56;21054;-76
2022/04/01 07:27:19;;;;;;;5.90;3.05;;;5.70;57.90;;;;;;2626820;52;21046;-75
2022/04/01 07:29:46;;;;;;;9.32;3.75;;;5.70;57.90;;;;;;2373192;56;21066;-76
2022/04/01 07:32:29;;;;;;;8.65;3.33;;;5.70;57.80;;;;;;2373530;56;21189;-76
2022/04/01 07:34:57;;;;;;;7.65;4.03;;;5.70;57.70;;;;;;2373314;56;21111;-77
2022/04/01 07:37:25;;;;;;;7.60;3.35;;;5.80;57.50;;;;;;2372462;56;21059;-76
2022/04/01 07:39:54;;;;;;;6.07;2.78;;;5.80;57.40;;;;;;2372652;56;21051;-76
2022/04/01 07:42:21;;;;;;;5.10;3.45;;;5.80;57.40;;;;;;2372257;56;21110;-76
2022/04/01 07:44:49;;;;;;;8.77;3.95;;;5.80;57.30;;;;;;2372241;56;21122;-75
2022/04/01 07:47:18;;;;;;;9.05;3.58;;;5.80;56.90;;;;;;2372263;56;21047;-77
2022/04/01 07:49:46;;;;;;;8.23;3.05;;;5.80;57.20;;;;;;2441251;55;21663;-72
2022/04/01 07:52:15;;;;;;;5.90;3.35;;;5.90;57.20;;;;;;2242761;60;21547;-74
2022/04/01 07:54:43;;;;;;;8.02;3.37;;;6.00;57.00;;;;;;2246696;59;21156;-74
2022/04/01 07:57:12;;;;;;;7.65;3.30;;;6.00;56.80;;;;;;2310891;55;21106;-74
2022/04/01 07:59:40;;;;;;;5.30;3.33;;;6.00;56.50;;;;;;2270501;59;21111;-74
2022/04/01 08:02:08;;;;;;;6.72;3.25;;;6.00;56.40;;;;;;2270206;59;21533;-74
2022/04/01 08:04:36;;;;;;;5.95;3.30;;;6.10;56.40;;;;;;2269422;59;21059;-72
2022/04/01 08:07:04;;;;;;;7.30;3.80;;;6.10;56.30;;;;;;2269838;59;21043;-74
2022/04/01 08:09:33;;;;;;;6.70;3.50;;;6.10;56.30;;;;;;2283791;55;21075;-74
2022/04/01 08:12:01;;;;;;;8.90;3.65;;;6.20;56.20;;;;;;2270344;59;21118;-72
2022/04/01 08:14:28;;;;;;;7.62;3.47;;;6.20;56.30;;;;;;2270083;59;21059;-72
2022/04/01 08:16:56;;;;;;;7.35;4.00;;;6.30;56.20;;;;;;2270555;59;21067;-72
2022/04/01 08:19:24;;;;;;;5.68;3.17;;;6.30;55.90;;;;;;2271028;59;21055;-74
2022/04/01 08:21:51;;;;;;;7.78;3.72;;;6.30;55.70;;;;;;2270915;59;21098;-72
2022/04/01 08:24:18;;;;;;;8.52;3.85;;;6.30;55.40;;;;;;2266855;59;21070;-74
2022/04/01 08:26:46;;;;;;;10.65;3.45;;;6.40;55.40;;;;;;2268994;59;21609;-74
2022/04/01 08:29:13;;;;;;;5.45;3.87;;;6.40;55.40;;;;;;2270468;59;21577;-74
2022/04/01 08:31:40;;;;;;;7.90;4.03;;;6.50;55.10;;;;;;2270515;59;21728;-74
2022/04/01 08:34:08;;;;;;;5.75;3.40;;;6.50;54.90;;;;;;2270487;59;21059;-72
2022/04/01 08:36:35;;;;;;;7.80;3.60;;;6.50;54.20;;;;;;2269898;59;21062;-72
2022/04/01 08:39:03;;;;;;;8.43;3.40;;;6.50;53.80;;;;;;2270522;59;21126;-74
2022/04/01 08:41:31;;;;;;;5.35;3.42;;;6.60;53.80;;;;;;2268781;59;21126;-74
2022/04/01 08:43:58;;;;;;;8.35;3.67;;;6.50;54.10;;;;;;2270676;59;21066;-74
2022/04/01 08:46:26;;;;;;;6.70;3.00;;;6.60;53.90;;;;;;2270219;59;21138;-74
2022/04/01 08:48:53;;;;;;;5.65;3.05;;;6.60;53.50;;;;;;2270974;59;21115;-74
2022/04/01 08:51:21;;;;;;;8.25;3.72;;;6.70;54.20;;;;;;2270404;59;21082;-72
2022/04/01 08:53:49;;;;;;;6.62;3.35;;;6.70;53.20;;;;;;2270992;59;21071;-74
2022/04/01 08:56:20;;;;;;;6.65;3.45;;;6.70;53.00;;;;;;2270528;59;21621;-74
2022/04/01 08:58:47;;;;;;;5.22;3.10;;;6.70;52.80;;;;;;2270051;59;21117;-74
2022/04/01 09:01:14;;;;;;;7.93;3.60;;;6.80;52.60;;;;;;2280154;55;21071;-74
2022/04/01 09:03:43;;;;;;;4.82;3.20;;;6.80;52.90;;;;;;2270595;59;21131;-72
2022/04/01 09:06:11;;;;;;;7.25;3.40;;;6.80;52.50;;;;;;2270239;59;21048;-73
2022/04/01 09:08:40;;;;;;;4.75;3.45;;;6.90;52.50;;;;;;2270598;59;21050;-73
2022/04/01 09:11:09;;;;;;;10.07;3.47;;;6.90;52.10;;;;;;2270832;59;21055;-73
2022/04/01 09:13:50;;;;;;;4.85;3.05;;;6.90;51.40;;;;;;2270925;59;21673;-72
2022/04/01 09:16:27;;;;;;;5.30;3.05;;;7.00;51.50;;;;;;2270090;59;21138;-73
2022/04/01 09:18:55;;;;;;;5.62;2.90;;;7.00;51.90;;;;;;2271100;59;21046;-73
2022/04/01 09:21:27;;;;;;;5.68;2.95;;;7.10;52.00;;;;;;2271122;59;21115;-72
2022/04/01 09:23:55;;;;;;;8.70;3.50;;;7.10;51.80;;;;;;2270982;59;21063;-72
2022/04/01 09:26:29;;;;;;;6.87;2.72;;;7.10;51.80;;;;;;2270354;59;21067;-73
2022/04/01 09:28:56;;;;;;;3.95;3.00;;;7.10;51.10;;;;;;2270331;59;21165;-72
2022/04/01 09:31:25;;;;;;;7.43;2.83;;;7.10;51.00;;;;;;2270901;59;21078;-73
2022/04/01 09:33:54;;;;;;;6.28;3.10;;;7.10;50.80;;;;;;2270925;59;21063;-73
2022/04/01 09:36:25;;;;;;;3.90;2.67;;;7.10;50.80;;;;;;2270351;59;21142;-73
2022/04/01 09:38:58;;;;;;;4.53;2.60;;;7.10;50.60;;;;;;2271011;59;21525;-72
2022/04/01 09:41:34;;;;;;;3.90;2.85;;;7.10;50.70;;;;;;2270854;59;21074;-72
2022/04/01 09:44:06;;;;;;;9.50;3.17;;;7.10;50.80;;;;;;2271008;59;21050;-73
2022/04/01 09:46:34;;;;;;;6.85;3.12;;;7.10;51.40;;;;;;2270562;59;21051;-73
2022/04/01 09:49:02;;;;;;;5.78;2.70;;;7.20;52.10;;;;;;2270938;59;21071;-72
2022/04/01 09:51:33;;;;;;;4.15;2.55;;;7.30;52.30;;;;;;2270560;59;21553;-73
2022/04/01 09:54:04;;;;;;;6.03;2.85;;;7.30;52.10;;;;;;2270871;59;21103;-72
2022/04/01 09:56:44;;;;;;;5.25;2.70;;;7.30;52.00;;;;;;2270374;59;21165;-73
2022/04/01 09:59:13;;;;;;;6.95;2.85;;;7.30;51.80;;;;;;2280393;55;21051;-72
2022/04/01 10:01:42;;;;;;;6.05;2.50;;;7.30;51.30;;;;;;2271104;59;21067;-73
2022/04/01 10:04:13;;;;;;;5.80;3.12;;;7.30;51.60;;;;;;2270949;59;21122;-73
2022/04/01 10:09:21;;;;;;;4.10;2.65;;;7.30;52.10;;;;;;2326260;57;22134;-73
2022/04/01 10:11:50;;;;;;;3.87;2.60;;;7.30;51.70;;;;;;2320224;58;21068;-73
2022/04/01 10:14:23;;;;;;;5.65;2.33;;;7.40;51.40;;;;;;2320136;58;21136;-73
2022/04/01 10:16:52;;;;;;;7.57;2.65;;;7.40;51.00;;;;;;2345420;57;21058;-73
2022/04/01 10:19:24;;;;;;;4.85;2.53;;;7.40;51.00;;;;;;2347268;57;21127;-73
2022/04/01 10:21:52;;;;;;;5.73;2.77;;;7.40;50.90;;;;;;2347337;57;21046;-73
2022/04/01 10:24:34;;;;;;;8.70;2.67;;;7.40;51.00;;;;;;2347104;57;21584;-73
2022/04/01 10:27:11;;;;;;;4.03;2.65;;;7.40;51.20;;;;;;2346219;57;21058;-73
2022/04/01 10:29:39;;;;;;;6.35;2.75;;;7.40;51.70;;;;;;2347081;57;21218;-73
2022/04/01 10:32:25;;;;;;;6.20;2.97;;;7.50;51.80;;;;;;2346884;57;21050;-73
2022/04/01 10:34:54;;;;;;;3.97;2.45;;;7.50;51.80;;;;;;2347134;57;21118;-73
2022/04/01 10:37:25;;;;;;;5.18;2.75;;;7.60;52.00;;;;;;2346782;57;21122;-73
2022/04/01 10:39:53;;;;;;;7.15;2.75;;;7.60;52.00;;;;;;2345574;57;21114;-74
2022/04/01 10:42:25;;;;;;;5.70;2.67;;;7.60;52.00;;;;;;2346849;57;21059;-73
2022/04/01 10:44:55;;;;;;;5.75;2.50;;;7.60;52.00;;;;;;2345505;57;21121;-73
2022/04/01 10:51:36;;;;;;;8.93;2.92;;;7.60;51.80;;;;;;2343605;57;21071;-73
2022/04/01 10:57:25;;;;;;;5.07;2.30;;;7.70;50.90;;;;;;2327436;57;22589;-73
2022/04/01 10:59:54;;;;;;;3.12;2.37;;;7.70;50.70;;;;;;2345952;57;21034;-73
2022/04/01 11:02:23;;;;;;;6.35;2.30;;;7.70;51.10;;;;;;2348459;53;21029;-73
2022/04/01 11:04:51;;;;;;;5.62;2.25;;;7.70;51.20;;;;;;2348045;56;21057;-73
2022/04/01 11:07:33;;;;;;;7.25;2.50;;;7.70;51.00;;;;;;2369438;56;21023;-77
2022/04/01 11:10:04;;;;;;;4.32;2.10;;;7.70;51.10;;;;;;2384731;52;21046;-73
2022/04/01 11:15:26;;;;;;;4.15;2.10;;;7.80;51.00;;;;;;2347836;57;22182;-74
2022/04/01 11:18:10;;;;;;;6.15;2.42;;;7.70;51.00;;;;;;2345896;57;21187;-73
2022/04/01 11:20:54;;;;;;;5.55;2.20;;;7.70;50.90;;;;;;2344873;57;21053;-74
2022/04/01 11:23:21;;;;;;;5.80;2.78;;;7.80;51.30;;;;;;2346414;57;21105;-73
2022/04/01 11:25:53;;;;;;;5.30;2.80;;;7.80;51.10;;;;;;2344238;57;21101;-73
2022/04/01 11:28:22;;;;;;;5.97;2.53;;;7.80;50.90;;;;;;2343735;57;21555;-74
2022/04/01 11:31:08;;;;;;;6.35;2.80;;;7.80;50.70;;;;;;2356424;53;21042;-73
2022/04/01 11:33:36;;;;;;;4.53;2.20;;;7.90;51.90;;;;;;2346531;57;21046;-73
2022/04/01 11:36:05;;;;;;;4.78;2.72;;;7.90;51.70;;;;;;2345615;57;21093;-74
2022/04/01 11:38:33;;;;;;;4.85;2.80;;;8.00;51.60;;;;;;2345727;57;21109;-73
2022/04/01 11:41:03;;;;;;;6.82;2.85;;;8.00;51.30;;;;;;2344445;57;21136;-74
2022/04/01 11:43:33;;;;;;;4.12;2.15;;;8.00;50.80;;;;;;2347125;57;21042;-73
2022/04/01 11:46:04;;;;;;;5.12;2.87;;;8.00;50.90;;;;;;2346245;57;21411;-74
2022/04/01 11:48:33;;;;;;;6.75;2.55;;;7.90;50.40;;;;;;2473963;53;21205;-73
2022/04/01 11:51:02;;;;;;;4.05;3.08;;;7.90;51.30;;;;;;2346956;57;21049;-73
2022/04/01 11:53:31;;;;;;;2.97;2.12;;;7.90;51.50;;;;;;2346646;57;21034;-73
2022/04/01 11:56:00;;;;;;;6.28;2.50;;;8.00;51.20;;;;;;2359249;53;21061;-73
2022/04/01 11:58:34;;;;;;;4.75;2.20;;;7.90;50.70;;;;;;2346132;57;21046;-73
2022/04/01 12:01:02;;;;;;;5.72;2.58;;;7.90;50.80;;;;;;2344592;57;21089;-74
2022/04/01 12:09:03;;;;;;;6.93;2.40;;;7.90;51.30;;;;;;2396621;54;21046;-73
2022/04/01 12:11:30;;;;;;;5.00;2.25;;;7.90;51.00;;;;;;2347000;57;21623;-74
2022/04/01 12:13:57;;;;;;;5.82;2.47;;;7.90;50.60;;;;;;2346363;57;21508;-73
2022/04/01 12:16:25;;;;;;;4.57;2.35;;;8.00;50.80;;;;;;2346431;57;21030;-74
2022/04/01 12:18:53;;;;;;;3.37;2.12;;;7.90;50.10;;;;;;2346734;57;21142;-73
2022/04/01 12:21:22;;;;;;;4.37;2.05;;;7.90;50.20;;;;;;2346899;57;21212;-73
2022/04/01 12:23:50;;;;;;;6.43;2.55;;;7.90;50.80;;;;;;2345974;57;21058;-74
2022/04/01 12:26:19;;;;;;;7.10;2.70;;;7.90;51.10;;;;;;2345049;57;21062;-73
2022/04/01 12:28:49;;;;;;;6.15;2.90;;;7.80;50.90;;;;;;2345603;57;21211;-73
2022/04/01 12:31:19;;;;;;;8.77;2.65;;;7.80;51.20;;;;;;2345879;57;21587;-74
2022/04/01 12:33:49;;;;;;;5.05;2.50;;;7.90;51.30;;;;;;2345317;57;21041;-74
2022/04/01 12:39:03;;;;;;;5.25;2.45;;;7.90;51.10;;;;;;2333966;57;27745;-74
2022/04/01 12:41:30;;;;;;;8.40;3.17;;;7.90;52.10;;;;;;2344769;57;21057;-73
2022/04/01 12:44:00;;;;;;;6.07;2.55;;;8.00;51.80;;;;;;2344885;57;21106;-73
2022/04/01 12:46:31;;;;;;;9.13;2.60;;;8.10;51.60;;;;;;2408964;52;21058;-73
2022/04/01 12:49:00;;;;;;;4.12;2.47;;;8.10;50.50;;;;;;2373329;56;21122;-73
2022/04/01 12:51:29;;;;;;;3.72;2.20;;;8.20;51.00;;;;;;2372431;56;21082;-73
2022/04/01 12:54:00;;;;;;;3.10;2.00;;;8.10;50.40;;;;;;2374223;56;21098;-74
2022/04/01 12:56:30;;;;;;;7.82;2.15;;;8.10;50.30;;;;;;2373892;56;21106;-73
2022/04/01 12:59:00;;;;;;;5.60;2.42;;;8.00;50.50;;;;;;2373746;56;21027;-73
2022/04/01 13:01:29;;;;;;;3.60;2.15;;;8.00;50.80;;;;;;2369459;56;21127;-73
2022/04/01 13:03:58;;;;;;;4.43;1.87;;;8.00;50.30;;;;;;2371851;56;21023;-73
2022/04/01 13:06:27;;;;;;;4.55;1.83;;;8.00;50.30;;;;;;2372124;56;21031;-74
2022/04/01 13:09:03;;;;;;;5.10;2.15;;;7.90;50.30;;;;;;2371614;56;21749;-72
2022/04/01 13:11:39;;;;;;;3.87;2.20;;;7.90;50.40;;;;;;2369974;56;21101;-73
2022/04/01 13:14:18;;;;;;;4.65;2.10;;;7.90;50.50;;;;;;2388740;52;21043;-73
2022/04/01 13:16:46;;;;;;;3.12;1.92;;;7.90;50.40;;;;;;2374396;56;21058;-74
2022/04/01 13:19:21;;;;;;;4.12;2.33;;;7.90;50.90;;;;;;2375102;56;21090;-73
2022/04/01 13:21:48;;;;;;;4.95;2.37;;;7.80;50.50;;;;;;2373831;56;21052;-73
2022/04/01 13:24:21;;;;;;;6.85;2.45;;;7.80;50.20;;;;;;2374938;56;21197;-74
2022/04/01 13:26:48;;;;;;;8.02;2.75;;;7.80;50.80;;;;;;2400154;52;21334;-73
2022/04/01 13:29:16;;;;;;;4.95;2.53;;;7.80;51.20;;;;;;2375309;56;21110;-73
2022/04/01 13:31:43;;;;;;;9.85;4.55;;;7.80;50.90;;;;;;2375266;56;21047;-73
2022/04/01 13:34:11;;;;;;;6.97;2.22;;;7.70;50.70;;;;;;2374898;56;21047;-73
2022/04/01 13:36:39;;;;;;;4.32;2.03;;;7.70;50.60;;;;;;2374640;56;21112;-74
2022/04/01 13:39:07;;;;;;;7.68;3.20;;;7.60;50.90;;;;;;2372879;54;21047;-73
2022/04/01 13:41:35;;;;;;;4.37;2.20;;;7.60;50.70;;;;;;2374240;56;21039;-74
2022/04/01 13:44:03;;;;;;;3.80;1.95;;;7.50;51.30;;;;;;2379380;52;21043;-74
2022/04/01 13:46:31;;;;;;;3.80;2.20;;;7.50;50.80;;;;;;2378318;52;21075;-74
2022/04/01 13:48:58;;;;;;;8.05;2.00;;;7.50;51.30;;;;;;2401606;52;69100;-78